sensor_id;sensor_type;location;lat;lon;timestamp;pressure;altitude;pressure_sealevel;temperature;humidity
19457;BME280;9867;48.094;11.478;2023-03-19T00:02:24;94851.97;;;8.11;100.00
19457;BME280;9867;48.094;11.478;2023-03-19T00:04:51;94856.25;;;8.04;100.00
19457;BME280;9867;48.094;11.478;2023-03-19T00:07:19;94861.25;;;7.84;100.00
19457;BME280;9867;48.094;11.478;2023-03-19T00:09:47;94854.00;;;7.60;100.00
19457;BME280;9867;48.094;11.478;2023-03-19T00:12:16;94843.97;;;7.58;100.00
19457;BME280;9867;48.094;11.478;2023-03-19T00:14:44;94849.91;;;7.65;100.00
19457;BME280;9867;48.094;11.478;2023-03-19T00:17:12;94836.56;;;7.42;100.00
19457;BME280;9867;48.094;11.478;2023-03-19T00:19:40;94840.44;;;7.31;100.00
19457;BME280;9867;48.094;11.478;2023-03-19T00:22:08;94840.38;;;7.25;100.00
19457;BME280;9867;48.094;11.478;2023-03-19T00:24:35;94843.88;;;7.24;100.00
19457;BME280;9867;48.094;11.478;2023-03-19T00:27:03;94846.63;;;7.22;100.00
19457;BME280;9867;48.094;11.478;2023-03-19T00:29:33;94846.44;;;7.24;100.00
19457;BME280;9867;48.094;11.478;2023-03-19T00:32:01;94847.03;;;7.26;100.00
19457;BME280;9867;48.094;11.478;2023-03-19T00:34:29;94853.47;;;7.22;100.00
19457;BME280;9867;48.094;11.478;2023-03-19T00:36:57;94857.84;;;7.06;100.00
19457;BME280;9867;48.094;11.478;2023-03-19T00:39:25;94851.00;;;7.07;100.00
19457;BME280;9867;48.094;11.478;2023-03-19T00:41:53;94856.03;;;7.00;100.00
19457;BME280;9867;48.094;11.478;2023-03-19T00:44:21;94857.63;;;6.87;100.00
19457;BME280;9867;48.094;11.478;2023-03-19T00:46:50;94860.84;;;6.74;100.00
19457;BME280;9867;48.094;11.478;2023-03-19T00:49:18;94870.44;;;6.72;100.00
19457;BME280;9867;48.094;11.478;2023-03-19T00:51:46;94865.81;;;6.61;100.00
19457;BME280;9867;48.094;11.478;2023-03-19T00:54:14;94874.94;;;6.55;100.00
19457;BME280;9867;48.094;11.478;2023-03-19T00:56:42;94860.72;;;6.61;100.00
19457;BME280;9867;48.094;11.478;2023-03-19T00:59:10;94853.84;;;6.46;100.00
19457;BME280;9867;48.094;11.478;2023-03-19T01:01:38;94854.69;;;6.32;100.00
19457;BME280;9867;48.094;11.478;2023-03-19T01:04:07;94853.34;;;6.22;100.00
19457;BME280;9867;48.094;11.478;2023-03-19T01:06:36;94849.34;;;6.12;100.00
19457;BME280;9867;48.094;11.478;2023-03-19T01:09:04;94856.59;;;6.15;100.00
19457;BME280;9867;48.094;11.478;2023-03-19T01:11:34;94857.75;;;6.28;100.00
19457;BME280;9867;48.094;11.478;2023-03-19T01:14:02;94862.94;;;6.34;100.00
19457;BME280;9867;48.094;11.478;2023-03-19T01:16:30;94861.78;;;6.37;100.00
19457;BME280;9867;48.094;11.478;2023-03-19T01:18:59;94856.19;;;6.12;100.00
19457;BME280;9867;48.094;11.478;2023-03-19T01:21:29;94858.44;;;6.22;100.00
19457;BME280;9867;48.094;11.478;2023-03-19T01:23:57;94865.72;;;5.95;100.00
19457;BME280;9867;48.094;11.478;2023-03-19T01:26:27;94864.13;;;5.94;100.00
19457;BME280;9867;48.094;11.478;2023-03-19T01:29:03;94870.03;;;5.72;100.00
19457;BME280;9867;48.094;11.478;2023-03-19T01:31:30;94868.16;;;5.51;100.00
19457;BME280;9867;48.094;11.478;2023-03-19T01:34:21;94878.63;;;5.56;100.00
19457;BME280;9867;48.094;11.478;2023-03-19T01:36:54;94873.22;;;5.74;100.00
19457;BME280;9867;48.094;11.478;2023-03-19T01:39:30;94872.59;;;5.72;100.00
19457;BME280;9867;48.094;11.478;2023-03-19T01:42:00;94870.19;;;5.56;100.00
19457;BME280;9867;48.094;11.478;2023-03-19T01:45:01;94861.53;;;5.65;100.00
19457;BME280;9867;48.094;11.478;2023-03-19T01:47:42;94868.56;;;5.63;100.00
19457;BME280;9867;48.094;11.478;2023-03-19T01:50:20;94872.84;;;5.62;100.00
19457;BME280;9867;48.094;11.478;2023-03-19T01:53:04;94867.50;;;5.72;100.00
19457;BME280;9867;48.094;11.478;2023-03-19T01:55:55;94864.16;;;5.71;100.00
19457;BME280;9867;48.094;11.478;2023-03-19T01:58:46;94871.97;;;5.70;100.00
19457;BME280;9867;48.094;11.478;2023-03-19T02:01:32;94865.50;;;5.82;100.00
19457;BME280;9867;48.094;11.478;2023-03-19T02:04:04;94867.81;;;5.92;100.00
19457;BME280;9867;48.094;11.478;2023-03-19T02:06:35;94869.00;;;6.04;100.00
19457;BME280;9867;48.094;11.478;2023-03-19T02:09:04;94877.84;;;6.08;100.00
19457;BME280;9867;48.094;11.478;2023-03-19T02:11:33;94890.94;;;6.20;100.00
19457;BME280;9867;48.094;11.478;2023-03-19T02:14:02;94882.44;;;6.27;100.00
19457;BME280;9867;48.094;11.478;2023-03-19T02:16:30;94875.22;;;6.31;100.00
19457;BME280;9867;48.094;11.478;2023-03-19T02:18:58;94866.78;;;6.15;100.00
19457;BME280;9867;48.094;11.478;2023-03-19T02:21:27;94862.72;;;5.92;100.00
19457;BME280;9867;48.094;11.478;2023-03-19T02:24:00;94864.16;;;5.71;100.00
19457;BME280;9867;48.094;11.478;2023-03-19T02:26:47;94856.00;;;5.61;100.00
19457;BME280;9867;48.094;11.478;2023-03-19T02:29:17;94860.84;;;5.71;100.00
19457;BME280;9867;48.094;11.478;2023-03-19T02:31:45;94865.91;;;5.71;100.00
19457;BME280;9867;48.094;11.478;2023-03-19T02:34:35;94868.13;;;5.74;100.00
19457;BME280;9867;48.094;11.478;2023-03-19T02:37:10;94875.78;;;5.51;100.00
19457;BME280;9867;48.094;11.478;2023-03-19T02:39:47;94873.75;;;5.46;100.00
19457;BME280;9867;48.094;11.478;2023-03-19T02:42:18;94871.31;;;5.53;100.00
19457;BME280;9867;48.094;11.478;2023-03-19T02:44:48;94876.63;;;5.43;100.00
19457;BME280;9867;48.094;11.478;2023-03-19T02:47:16;94872.09;;;5.39;100.00
19457;BME280;9867;48.094;11.478;2023-03-19T02:49:44;94878.13;;;5.38;100.00
19457;BME280;9867;48.094;11.478;2023-03-19T02:52:13;94887.44;;;5.23;100.00
19457;BME280;9867;48.094;11.478;2023-03-19T02:54:42;94876.44;;;5.30;100.00
19457;BME280;9867;48.094;11.478;2023-03-19T02:57:10;94888.66;;;5.35;100.00
19457;BME280;9867;48.094;11.478;2023-03-19T02:59:39;94883.13;;;5.46;100.00
19457;BME280;9867;48.094;11.478;2023-03-19T03:02:07;94884.88;;;5.68;100.00
19457;BME280;9867;48.094;11.478;2023-03-19T03:04:35;94889.09;;;5.76;100.00
19457;BME280;9867;48.094;11.478;2023-03-19T03:07:04;94898.44;;;5.83;100.00
19457;BME280;9867;48.094;11.478;2023-03-19T03:09:32;94897.78;;;5.90;100.00
19457;BME280;9867;48.094;11.478;2023-03-19T03:12:01;94899.09;;;6.00;100.00
19457;BME280;9867;48.094;11.478;2023-03-19T03:14:29;94894.63;;;6.02;100.00
19457;BME280;9867;48.094;11.478;2023-03-19T03:16:58;94899.59;;;5.96;100.00
19457;BME280;9867;48.094;11.478;2023-03-19T03:19:26;94904.66;;;5.81;100.00
19457;BME280;9867;48.094;11.478;2023-03-19T03:21:54;94902.78;;;5.75;100.00
19457;BME280;9867;48.094;11.478;2023-03-19T03:24:22;94897.50;;;5.62;100.00
19457;BME280;9867;48.094;11.478;2023-03-19T03:26:50;94897.19;;;5.42;100.00
19457;BME280;9867;48.094;11.478;2023-03-19T03:29:19;94896.28;;;5.35;100.00
19457;BME280;9867;48.094;11.478;2023-03-19T03:31:47;94894.44;;;5.21;100.00
19457;BME280;9867;48.094;11.478;2023-03-19T03:34:16;94900.13;;;5.31;100.00
19457;BME280;9867;48.094;11.478;2023-03-19T03:36:44;94893.31;;;5.46;100.00
19457;BME280;9867;48.094;11.478;2023-03-19T03:39:13;94902.47;;;5.55;100.00
19457;BME280;9867;48.094;11.478;2023-03-19T03:41:41;94903.63;;;5.67;100.00
19457;BME280;9867;48.094;11.478;2023-03-19T03:44:09;94907.09;;;5.74;100.00
19457;BME280;9867;48.094;11.478;2023-03-19T03:46:39;94914.66;;;5.82;100.00
19457;BME280;9867;48.094;11.478;2023-03-19T03:49:08;94914.94;;;5.88;100.00
19457;BME280;9867;48.094;11.478;2023-03-19T03:51:39;94909.63;;;5.97;100.00
19457;BME280;9867;48.094;11.478;2023-03-19T03:54:07;94917.81;;;6.07;100.00
19457;BME280;9867;48.094;11.478;2023-03-19T03:56:35;94921.22;;;6.14;100.00
19457;BME280;9867;48.094;11.478;2023-03-19T03:59:03;94917.72;;;6.15;100.00
19457;BME280;9867;48.094;11.478;2023-03-19T04:01:31;94921.66;;;6.18;100.00
19457;BME280;9867;48.094;11.478;2023-03-19T04:03:59;94919.41;;;6.23;100.00
19457;BME280;9867;48.094;11.478;2023-03-19T04:06:27;94923.09;;;6.35;100.00
19457;BME280;9867;48.094;11.478;2023-03-19T04:09:20;94922.84;;;6.30;100.00
19457;BME280;9867;48.094;11.478;2023-03-19T04:11:48;94922.66;;;6.32;100.00
19457;BME280;9867;48.094;11.478;2023-03-19T04:14:17;94921.34;;;6.36;100.00
19457;BME280;9867;48.094;11.478;2023-03-19T04:16:45;94922.94;;;6.37;100.00
19457;BME280;9867;48.094;11.478;2023-03-19T04:19:13;94927.13;;;6.30;100.00
19457;BME280;9867;48.094;11.478;2023-03-19T04:21:41;94924.41;;;6.31;100.00
19457;BME280;9867;48.094;11.478;2023-03-19T04:24:10;94938.75;;;6.32;100.00
19457;BME280;9867;48.094;11.478;2023-03-19T04:26:39;94940.03;;;6.43;100.00
19457;BME280;9867;48.094;11.478;2023-03-19T04:29:07;94947.78;;;6.49;100.00
19457;BME280;9867;48.094;11.478;2023-03-19T04:31:36;94937.75;;;6.63;100.00
19457;BME280;9867;48.094;11.478;2023-03-19T04:34:04;94935.13;;;6.71;100.00
19457;BME280;9867;48.094;11.478;2023-03-19T04:36:32;94944.97;;;6.74;100.00
19457;BME280;9867;48.094;11.478;2023-03-19T04:39:00;94942.25;;;6.75;100.00
19457;BME280;9867;48.094;11.478;2023-03-19T04:41:28;94937.13;;;6.75;100.00
19457;BME280;9867;48.094;11.478;2023-03-19T04:44:11;94937.84;;;6.84;100.00
19457;BME280;9867;48.094;11.478;2023-03-19T04:46:39;94942.94;;;6.84;100.00
19457;BME280;9867;48.094;11.478;2023-03-19T04:49:07;94942.94;;;6.84;100.00
19457;BME280;9867;48.094;11.478;2023-03-19T04:51:36;94947.91;;;6.92;100.00
19457;BME280;9867;48.094;11.478;2023-03-19T04:54:05;94948.97;;;6.98;100.00
19457;BME280;9867;48.094;11.478;2023-03-19T04:56:32;94953.53;;;7.02;100.00
19457;BME280;9867;48.094;11.478;2023-03-19T04:59:00;94953.97;;;7.06;100.00
19457;BME280;9867;48.094;11.478;2023-03-19T05:01:29;94952.22;;;7.06;100.00
19457;BME280;9867;48.094;11.478;2023-03-19T05:04:02;94955.56;;;7.07;100.00
19457;BME280;9867;48.094;11.478;2023-03-19T05:06:33;94959.94;;;7.13;100.00
19457;BME280;9867;48.094;11.478;2023-03-19T05:09:00;94959.22;;;7.19;100.00
19457;BME280;9867;48.094;11.478;2023-03-19T05:11:28;94963.69;;;7.32;100.00
19457;BME280;9867;48.094;11.478;2023-03-19T05:14:02;94973.13;;;7.52;100.00
19457;BME280;9867;48.094;11.478;2023-03-19T05:16:44;94975.78;;;7.66;100.00
19457;BME280;9867;48.094;11.478;2023-03-19T05:19:13;94983.81;;;7.63;100.00
19457;BME280;9867;48.094;11.478;2023-03-19T05:21:42;94983.28;;;7.67;100.00
19457;BME280;9867;48.094;11.478;2023-03-19T05:24:10;94987.66;;;7.73;100.00
19457;BME280;9867;48.094;11.478;2023-03-19T05:26:38;94988.69;;;7.79;100.00
19457;BME280;9867;48.094;11.478;2023-03-19T05:29:21;94992.88;;;7.86;100.00
19457;BME280;9867;48.094;11.478;2023-03-19T05:32:14;95001.47;;;8.00;100.00
19457;BME280;9867;48.094;11.478;2023-03-19T05:34:43;95003.94;;;7.94;100.00
19457;BME280;9867;48.094;11.478;2023-03-19T05:37:11;95003.69;;;7.88;100.00
19457;BME280;9867;48.094;11.478;2023-03-19T05:39:40;95006.94;;;7.97;100.00
19457;BME280;9867;48.094;11.478;2023-03-19T05:42:09;95005.72;;;7.93;100.00
19457;BME280;9867;48.094;11.478;2023-03-19T05:44:37;95009.13;;;8.00;100.00
19457;BME280;9867;48.094;11.478;2023-03-19T05:47:35;95018.66;;;8.13;100.00
19457;BME280;9867;48.094;11.478;2023-03-19T05:50:05;95017.13;;;8.18;100.00
19457;BME280;9867;48.094;11.478;2023-03-19T05:52:33;95028.78;;;8.28;100.00
19457;BME280;9867;48.094;11.478;2023-03-19T05:55:01;95041.03;;;8.32;100.00
19457;BME280;9867;48.094;11.478;2023-03-19T05:57:50;95031.59;;;8.33;100.00
19457;BME280;9867;48.094;11.478;2023-03-19T06:00:23;95046.41;;;8.37;100.00
19457;BME280;9867;48.094;11.478;2023-03-19T06:02:52;95046.09;;;8.47;100.00
19457;BME280;9867;48.094;11.478;2023-03-19T06:05:52;95058.69;;;8.48;100.00
19457;BME280;9867;48.094;11.478;2023-03-19T06:08:41;95059.66;;;8.47;100.00
19457;BME280;9867;48.094;11.478;2023-03-19T06:11:29;95065.19;;;8.51;100.00
19457;BME280;9867;48.094;11.478;2023-03-19T06:14:20;95072.47;;;8.54;100.00
19457;BME280;9867;48.094;11.478;2023-03-19T06:17:04;95072.72;;;8.59;100.00
19457;BME280;9867;48.094;11.478;2023-03-19T06:19:33;95084.16;;;8.63;100.00
19457;BME280;9867;48.094;11.478;2023-03-19T06:22:02;95083.19;;;8.64;100.00
19457;BME280;9867;48.094;11.478;2023-03-19T06:24:30;95074.41;;;8.73;100.00
19457;BME280;9867;48.094;11.478;2023-03-19T06:26:58;95100.97;;;8.72;100.00
19457;BME280;9867;48.094;11.478;2023-03-19T06:29:26;95098.44;;;8.79;100.00
19457;BME280;9867;48.094;11.478;2023-03-19T06:32:00;95092.63;;;8.92;100.00
19457;BME280;9867;48.094;11.478;2023-03-19T06:34:49;95107.63;;;9.01;100.00
19457;BME280;9867;48.094;11.478;2023-03-19T06:37:17;95102.81;;;9.13;100.00
19457;BME280;9867;48.094;11.478;2023-03-19T06:39:45;95110.97;;;9.30;100.00
19457;BME280;9867;48.094;11.478;2023-03-19T06:42:14;95115.47;;;9.28;100.00
19457;BME280;9867;48.094;11.478;2023-03-19T06:44:42;95115.88;;;9.31;100.00
19457;BME280;9867;48.094;11.478;2023-03-19T06:47:10;95106.94;;;9.14;100.00
19457;BME280;9867;48.094;11.478;2023-03-19T06:49:40;95114.63;;;9.14;100.00
19457;BME280;9867;48.094;11.478;2023-03-19T06:52:09;95114.19;;;9.10;100.00
19457;BME280;9867;48.094;11.478;2023-03-19T06:54:37;95112.19;;;9.06;100.00
19457;BME280;9867;48.094;11.478;2023-03-19T06:57:04;95108.25;;;9.03;100.00
19457;BME280;9867;48.094;11.478;2023-03-19T06:59:32;95116.53;;;9.05;100.00
19457;BME280;9867;48.094;11.478;2023-03-19T07:02:00;95122.56;;;8.98;100.00
19457;BME280;9867;48.094;11.478;2023-03-19T07:04:28;95120.63;;;9.00;100.00
19457;BME280;9867;48.094;11.478;2023-03-19T07:06:56;95129.25;;;8.99;100.00
19457;BME280;9867;48.094;11.478;2023-03-19T07:09:25;95130.06;;;8.99;100.00
19457;BME280;9867;48.094;11.478;2023-03-19T07:11:53;95138.53;;;9.00;100.00
19457;BME280;9867;48.094;11.478;2023-03-19T07:14:22;95148.22;;;9.04;100.00
19457;BME280;9867;48.094;11.478;2023-03-19T07:16:50;95155.19;;;9.17;100.00
19457;BME280;9867;48.094;11.478;2023-03-19T07:19:18;95155.03;;;9.25;100.00
19457;BME280;9867;48.094;11.478;2023-03-19T07:21:46;95162.41;;;9.35;100.00
19457;BME280;9867;48.094;11.478;2023-03-19T07:24:14;95168.13;;;9.37;100.00
19457;BME280;9867;48.094;11.478;2023-03-19T07:26:43;95168.13;;;9.37;100.00
19457;BME280;9867;48.094;11.478;2023-03-19T07:29:12;95171.31;;;9.45;100.00
19457;BME280;9867;48.094;11.478;2023-03-19T07:31:40;95182.75;;;9.43;100.00
19457;BME280;9867;48.094;11.478;2023-03-19T07:34:08;95182.75;;;9.43;100.00
19457;BME280;9867;48.094;11.478;2023-03-19T07:36:35;95183.91;;;9.81;100.00
19457;BME280;9867;48.094;11.478;2023-03-19T07:39:03;95180.56;;;9.81;100.00
19457;BME280;9867;48.094;11.478;2023-03-19T07:41:31;95167.97;;;10.34;100.00
19457;BME280;9867;48.094;11.478;2023-03-19T07:44:00;95196.09;;;10.14;100.00
19457;BME280;9867;48.094;11.478;2023-03-19T07:46:28;95195.00;;;10.43;100.00
19457;BME280;9867;48.094;11.478;2023-03-19T07:48:57;95203.72;;;10.55;100.00
19457;BME280;9867;48.094;11.478;2023-03-19T07:51:25;95202.31;;;10.46;100.00
19457;BME280;9867;48.094;11.478;2023-03-19T07:53:53;95207.44;;;10.46;100.00
19457;BME280;9867;48.094;11.478;2023-03-19T07:56:20;95193.09;;;10.78;100.00
19457;BME280;9867;48.094;11.478;2023-03-19T07:58:48;95194.47;;;10.67;100.00
19457;BME280;9867;48.094;11.478;2023-03-19T08:01:18;95197.44;;;10.71;100.00
19457;BME280;9867;48.094;11.478;2023-03-19T08:03:46;95197.03;;;10.74;100.00
19457;BME280;9867;48.094;11.478;2023-03-19T08:06:14;95195.09;;;11.02;100.00
19457;BME280;9867;48.094;11.478;2023-03-19T08:08:42;95198.41;;;10.70;100.00
19457;BME280;9867;48.094;11.478;2023-03-19T08:11:10;95191.50;;;10.57;100.00
19457;BME280;9867;48.094;11.478;2023-03-19T08:13:38;95198.75;;;10.40;100.00
19457;BME280;9867;48.094;11.478;2023-03-19T08:16:06;95202.13;;;10.54;100.00
19457;BME280;9867;48.094;11.478;2023-03-19T08:18:35;95202.44;;;10.24;100.00
19457;BME280;9867;48.094;11.478;2023-03-19T08:21:03;95201.59;;;10.17;100.00
19457;BME280;9867;48.094;11.478;2023-03-19T08:23:32;95195.03;;;10.02;100.00
19457;BME280;9867;48.094;11.478;2023-03-19T08:26:00;95197.25;;;10.11;100.00
19457;BME280;9867;48.094;11.478;2023-03-19T08:28:28;95192.50;;;10.63;100.00
19457;BME280;9867;48.094;11.478;2023-03-19T08:30:56;95184.97;;;10.54;100.00
19457;BME280;9867;48.094;11.478;2023-03-19T08:33:24;95186.31;;;10.37;100.00
19457;BME280;9867;48.094;11.478;2023-03-19T08:36:03;95195.41;;;10.46;100.00
19457;BME280;9867;48.094;11.478;2023-03-19T08:38:31;95195.94;;;10.22;100.00
19457;BME280;9867;48.094;11.478;2023-03-19T08:40:59;95203.66;;;10.29;100.00
19457;BME280;9867;48.094;11.478;2023-03-19T08:43:30;95207.44;;;10.39;100.00
19457;BME280;9867;48.094;11.478;2023-03-19T08:45:58;95216.59;;;10.88;100.00
19457;BME280;9867;48.094;11.478;2023-03-19T08:48:27;95207.13;;;11.15;100.00
19457;BME280;9867;48.094;11.478;2023-03-19T08:50:57;95207.72;;;10.84;100.00
19457;BME280;9867;48.094;11.478;2023-03-19T08:53:26;95218.38;;;11.14;100.00
19457;BME280;9867;48.094;11.478;2023-03-19T08:55:55;95222.91;;;11.12;100.00
19457;BME280;9867;48.094;11.478;2023-03-19T08:58:23;95214.81;;;11.35;100.00
19457;BME280;9867;48.094;11.478;2023-03-19T09:00:52;95221.31;;;11.63;100.00
19457;BME280;9867;48.094;11.478;2023-03-19T09:03:20;95226.66;;;11.62;100.00
19457;BME280;9867;48.094;11.478;2023-03-19T09:05:48;95229.97;;;12.02;100.00
19457;BME280;9867;48.094;11.478;2023-03-19T09:08:17;95230.00;;;11.82;100.00
19457;BME280;9867;48.094;11.478;2023-03-19T09:10:45;95233.72;;;12.00;100.00
19457;BME280;9867;48.094;11.478;2023-03-19T09:13:14;95234.00;;;11.32;100.00
19457;BME280;9867;48.094;11.478;2023-03-19T09:15:42;95238.53;;;10.97;100.00
19457;BME280;9867;48.094;11.478;2023-03-19T09:18:10;95236.97;;;11.22;100.00
19457;BME280;9867;48.094;11.478;2023-03-19T09:20:38;95240.13;;;11.31;100.00
19457;BME280;9867;48.094;11.478;2023-03-19T09:23:06;95248.41;;;11.20;100.00
19457;BME280;9867;48.094;11.478;2023-03-19T09:25:35;95242.91;;;11.10;100.00
19457;BME280;9867;48.094;11.478;2023-03-19T09:28:03;95234.38;;;10.83;100.00
19457;BME280;9867;48.094;11.478;2023-03-19T09:30:31;95250.53;;;10.77;100.00
19457;BME280;9867;48.094;11.478;2023-03-19T09:32:59;95237.94;;;10.95;100.00
19457;BME280;9867;48.094;11.478;2023-03-19T09:35:27;95244.00;;;10.74;100.00
19457;BME280;9867;48.094;11.478;2023-03-19T09:37:56;95248.34;;;10.61;100.00
19457;BME280;9867;48.094;11.478;2023-03-19T09:40:27;95253.75;;;11.05;100.00
19457;BME280;9867;48.094;11.478;2023-03-19T09:43:06;95255.91;;;11.15;100.00
19457;BME280;9867;48.094;11.478;2023-03-19T09:45:44;95268.28;;;10.72;100.00
19457;BME280;9867;48.094;11.478;2023-03-19T09:48:17;95264.84;;;10.45;100.00
19457;BME280;9867;48.094;11.478;2023-03-19T09:50:47;95267.59;;;10.43;100.00
19457;BME280;9867;48.094;11.478;2023-03-19T09:53:20;95264.81;;;10.32;100.00
19457;BME280;9867;48.094;11.478;2023-03-19T09:55:51;95265.56;;;10.25;100.00
19457;BME280;9867;48.094;11.478;2023-03-19T09:58:22;95268.38;;;10.37;100.00
19457;BME280;9867;48.094;11.478;2023-03-19T10:00:55;95251.94;;;10.25;100.00
19457;BME280;9867;48.094;11.478;2023-03-19T10:03:34;95253.97;;;10.43;100.00
19457;BME280;9867;48.094;11.478;2023-03-19T10:06:16;95253.91;;;10.77;100.00
19457;BME280;9867;48.094;11.478;2023-03-19T10:09:03;95246.03;;;10.99;100.00
19457;BME280;9867;48.094;11.478;2023-03-19T10:11:47;95239.31;;;11.11;100.00
19457;BME280;9867;48.094;11.478;2023-03-19T10:14:39;95246.03;;;11.12;100.00
19457;BME280;9867;48.094;11.478;2023-03-19T10:17:16;95239.91;;;11.00;100.00
19457;BME280;9867;48.094;11.478;2023-03-19T10:19:48;95242.69;;;11.18;100.00
19457;BME280;9867;48.094;11.478;2023-03-19T10:22:20;95244.88;;;11.08;100.00
19457;BME280;9867;48.094;11.478;2023-03-19T10:24:51;95242.09;;;11.03;100.00
19457;BME280;9867;48.094;11.478;2023-03-19T10:27:22;95242.47;;;11.13;100.00
19457;BME280;9867;48.094;11.478;2023-03-19T10:29:51;95252.16;;;11.37;100.00
19457;BME280;9867;48.094;11.478;2023-03-19T10:32:26;95239.72;;;11.41;100.00
19457;BME280;9867;48.094;11.478;2023-03-19T10:35:03;95243.84;;;11.61;100.00
19457;BME280;9867;48.094;11.478;2023-03-19T10:37:35;95245.66;;;11.48;100.00
19457;BME280;9867;48.094;11.478;2023-03-19T10:40:13;95255.13;;;11.41;100.00
19457;BME280;9867;48.094;11.478;2023-03-19T10:42:55;95244.06;;;11.53;100.00
19457;BME280;9867;48.094;11.478;2023-03-19T10:45:30;95248.00;;;11.62;100.00
19457;BME280;9867;48.094;11.478;2023-03-19T10:48:01;95248.44;;;11.33;100.00
19457;BME280;9867;48.094;11.478;2023-03-19T10:50:33;95232.19;;;11.39;100.00
19457;BME280;9867;48.094;11.478;2023-03-19T10:53:05;95228.25;;;11.10;100.00
19457;BME280;9867;48.094;11.478;2023-03-19T10:55:34;95234.59;;;11.21;100.00
19457;BME280;9867;48.094;11.478;2023-03-19T10:58:04;95236.34;;;11.60;100.00
19457;BME280;9867;48.094;11.478;2023-03-19T11:00:34;95230.50;;;12.11;100.00
19457;BME280;9867;48.094;11.478;2023-03-19T11:03:02;95228.06;;;12.29;100.00
19457;BME280;9867;48.094;11.478;2023-03-19T11:05:32;95236.53;;;12.43;100.00
19457;BME280;9867;48.094;11.478;2023-03-19T11:08:02;95233.94;;;12.43;100.00
19457;BME280;9867;48.094;11.478;2023-03-19T11:10:32;95235.38;;;12.32;100.00
19457;BME280;9867;48.094;11.478;2023-03-19T11:13:04;95228.72;;;12.56;100.00
19457;BME280;9867;48.094;11.478;2023-03-19T11:15:35;95223.56;;;12.62;100.00
19457;BME280;9867;48.094;11.478;2023-03-19T11:18:15;95225.03;;;12.45;100.00
19457;BME280;9867;48.094;11.478;2023-03-19T11:20:49;95219.09;;;12.45;100.00
19457;BME280;9867;48.094;11.478;2023-03-19T11:23:20;95223.91;;;12.73;100.00
19457;BME280;9867;48.094;11.478;2023-03-19T11:25:50;95214.25;;;12.61;100.00
19457;BME280;9867;48.094;11.478;2023-03-19T11:28:20;95223.94;;;12.97;100.00
19457;BME280;9867;48.094;11.478;2023-03-19T11:30:59;95229.63;;;13.06;100.00
19457;BME280;9867;48.094;11.478;2023-03-19T11:36:23;95216.31;;;13.09;100.00
19457;BME280;9867;48.094;11.478;2023-03-19T11:39:12;95215.75;;;13.07;100.00
19457;BME280;9867;48.094;11.478;2023-03-19T11:41:54;95203.00;;;13.19;100.00
19457;BME280;9867;48.094;11.478;2023-03-19T11:44:28;95203.44;;;13.16;100.00
19457;BME280;9867;48.094;11.478;2023-03-19T11:47:06;95204.34;;;12.96;100.00
19457;BME280;9867;48.094;11.478;2023-03-19T11:49:59;95195.69;;;12.84;100.00
19457;BME280;9867;48.094;11.478;2023-03-19T11:52:36;95203.72;;;13.26;100.00
19457;BME280;9867;48.094;11.478;2023-03-19T11:55:16;95206.72;;;13.23;100.00
19457;BME280;9867;48.094;11.478;2023-03-19T11:58:07;95194.41;;;13.25;100.00
19457;BME280;9867;48.094;11.478;2023-03-19T12:00:45;95200.03;;;13.22;100.00
19457;BME280;9867;48.094;11.478;2023-03-19T12:03:47;95195.13;;;13.07;100.00
19457;BME280;9867;48.094;11.478;2023-03-19T12:06:30;95185.91;;;13.24;100.00
19457;BME280;9867;48.094;11.478;2023-03-19T12:09:02;95188.44;;;12.99;100.00
19457;BME280;9867;48.094;11.478;2023-03-19T12:11:38;95182.97;;;13.21;100.00
19457;BME280;9867;48.094;11.478;2023-03-19T12:14:19;95180.41;;;13.82;100.00
19457;BME280;9867;48.094;11.478;2023-03-19T12:17:16;95173.81;;;13.86;100.00
19457;BME280;9867;48.094;11.478;2023-03-19T12:20:14;95178.94;;;14.83;100.00
19457;BME280;9867;48.094;11.478;2023-03-19T12:22:54;95175.63;;;15.06;100.00
19457;BME280;9867;48.094;11.478;2023-03-19T12:25:40;95166.84;;;15.18;100.00
19457;BME280;9867;48.094;11.478;2023-03-19T12:28:16;95156.34;;;14.78;100.00
19457;BME280;9867;48.094;11.478;2023-03-19T12:30:49;95159.16;;;14.88;100.00
19457;BME280;9867;48.094;11.478;2023-03-19T12:33:32;95151.91;;;14.25;100.00
19457;BME280;9867;48.094;11.478;2023-03-19T12:36:09;95155.16;;;14.51;100.00
19457;BME280;9867;48.094;11.478;2023-03-19T12:38:42;95146.47;;;14.63;100.00
19457;BME280;9867;48.094;11.478;2023-03-19T12:41:17;95135.22;;;14.70;100.00
19457;BME280;9867;48.094;11.478;2023-03-19T12:43:51;95152.16;;;14.65;100.00
19457;BME280;9867;48.094;11.478;2023-03-19T12:46:31;95141.41;;;14.39;100.00
19457;BME280;9867;48.094;11.478;2023-03-19T12:49:05;95142.44;;;13.89;100.00
19457;BME280;9867;48.094;11.478;2023-03-19T12:51:38;95140.69;;;14.02;100.00
19457;BME280;9867;48.094;11.478;2023-03-19T12:54:12;95142.31;;;14.14;100.00
19457;BME280;9867;48.094;11.478;2023-03-19T12:56:45;95143.84;;;14.04;100.00
19457;BME280;9867;48.094;11.478;2023-03-19T12:59:22;95136.28;;;14.20;100.00
19457;BME280;9867;48.094;11.478;2023-03-19T13:01:59;95130.31;;;14.20;100.00
19457;BME280;9867;48.094;11.478;2023-03-19T13:04:32;95131.59;;;14.29;100.00
19457;BME280;9867;48.094;11.478;2023-03-19T13:07:10;95128.50;;;14.39;100.00
19457;BME280;9867;48.094;11.478;2023-03-19T13:09:42;95127.84;;;14.13;100.00
19457;BME280;9867;48.094;11.478;2023-03-19T13:12:17;95122.94;;;14.23;100.00
19457;BME280;9867;48.094;11.478;2023-03-19T13:14:52;95127.75;;;14.20;100.00
19457;BME280;9867;48.094;11.478;2023-03-19T13:17:27;95121.41;;;14.04;100.00
19457;BME280;9867;48.094;11.478;2023-03-19T13:20:09;95122.84;;;14.00;100.00
19457;BME280;9867;48.094;11.478;2023-03-19T13:22:44;95122.72;;;13.77;100.00
19457;BME280;9867;48.094;11.478;2023-03-19T13:25:15;95122.66;;;13.47;100.00